sensor_id;sensor_type;location;lat;lon;timestamp;P1;durP1;ratioP1;P2;durP2;ratioP2
3207;SDS011;1616;52.394;9.756;2022-12-18T00:01:14;18.73;;;8.47;;
3207;SDS011;1616;52.394;9.756;2022-12-18T00:03:44;25.97;;;11.20;;
3207;SDS011;1616;52.394;9.756;2022-12-18T00:06:10;15.77;;;9.70;;
3207;SDS011;1616;52.394;9.756;2022-12-18T00:08:37;21.77;;;9.27;;
3207;SDS011;1616;52.394;9.756;2022-12-18T00:11:10;20.30;;;10.87;;
3207;SDS011;1616;52.394;9.756;2022-12-18T00:13:37;26.40;;;11.07;;
3207;SDS011;1616;52.394;9.756;2022-12-18T00:16:07;18.97;;;10.00;;
3207;SDS011;1616;52.394;9.756;2022-12-18T00:18:35;21.70;;;10.53;;
3207;SDS011;1616;52.394;9.756;2022-12-18T00:21:02;16.53;;;8.83;;
3207;SDS011;1616;52.394;9.756;2022-12-18T00:23:30;19.47;;;10.50;;
3207;SDS011;1616;52.394;9.756;2022-12-18T00:26:00;24.47;;;12.20;;
3207;SDS011;1616;52.394;9.756;2022-12-18T00:28:27;25.87;;;11.23;;
3207;SDS011;1616;52.394;9.756;2022-12-18T00:31:09;19.93;;;10.83;;
3207;SDS011;1616;52.394;9.756;2022-12-18T00:33:37;13.43;;;9.43;;
3207;SDS011;1616;52.394;9.756;2022-12-18T00:36:04;22.10;;;10.37;;
3207;SDS011;1616;52.394;9.756;2022-12-18T00:38:49;18.20;;;9.27;;
3207;SDS011;1616;52.394;9.756;2022-12-18T00:41:16;26.20;;;11.37;;
3207;SDS011;1616;52.394;9.756;2022-12-18T00:44:02;19.03;;;10.37;;
3207;SDS011;1616;52.394;9.756;2022-12-18T00:46:28;20.03;;;9.73;;
3207;SDS011;1616;52.394;9.756;2022-12-18T00:48:54;27.43;;;10.77;;
3207;SDS011;1616;52.394;9.756;2022-12-18T00:51:20;17.67;;;10.17;;
3207;SDS011;1616;52.394;9.756;2022-12-18T00:53:46;14.50;;;9.67;;
3207;SDS011;1616;52.394;9.756;2022-12-18T00:56:12;21.77;;;11.40;;
3207;SDS011;1616;52.394;9.756;2022-12-18T00:58:37;20.43;;;11.43;;
3207;SDS011;1616;52.394;9.756;2022-12-18T01:01:04;14.87;;;9.30;;
3207;SDS011;1616;52.394;9.756;2022-12-18T01:03:30;20.20;;;8.53;;
3207;SDS011;1616;52.394;9.756;2022-12-18T01:05:56;21.83;;;9.87;;
3207;SDS011;1616;52.394;9.756;2022-12-18T01:08:22;16.53;;;9.83;;
3207;SDS011;1616;52.394;9.756;2022-12-18T01:10:48;28.33;;;10.20;;
3207;SDS011;1616;52.394;9.756;2022-12-18T01:13:14;15.60;;;9.17;;
3207;SDS011;1616;52.394;9.756;2022-12-18T01:15:40;22.37;;;10.53;;
3207;SDS011;1616;52.394;9.756;2022-12-18T01:18:14;17.40;;;10.17;;
3207;SDS011;1616;52.394;9.756;2022-12-18T01:20:39;22.23;;;10.83;;
3207;SDS011;1616;52.394;9.756;2022-12-18T01:23:06;28.53;;;9.73;;
3207;SDS011;1616;52.394;9.756;2022-12-18T01:25:32;21.50;;;10.57;;
3207;SDS011;1616;52.394;9.756;2022-12-18T01:27:57;15.70;;;8.93;;
3207;SDS011;1616;52.394;9.756;2022-12-18T01:30:23;18.97;;;10.37;;
3207;SDS011;1616;52.394;9.756;2022-12-18T01:32:52;24.63;;;10.43;;
3207;SDS011;1616;52.394;9.756;2022-12-18T01:35:18;15.93;;;8.63;;
3207;SDS011;1616;52.394;9.756;2022-12-18T01:37:44;17.30;;;9.87;;
3207;SDS011;1616;52.394;9.756;2022-12-18T01:40:10;13.90;;;7.80;;
3207;SDS011;1616;52.394;9.756;2022-12-18T01:42:36;18.03;;;9.03;;
3207;SDS011;1616;52.394;9.756;2022-12-18T01:47:38;19.87;;;7.57;;
3207;SDS011;1616;52.394;9.756;2022-12-18T01:50:12;20.27;;;11.00;;
3207;SDS011;1616;52.394;9.756;2022-12-18T01:52:49;18.63;;;9.83;;
3207;SDS011;1616;52.394;9.756;2022-12-18T01:55:19;16.50;;;9.40;;
3207;SDS011;1616;52.394;9.756;2022-12-18T01:57:49;11.63;;;7.60;;
3207;SDS011;1616;52.394;9.756;2022-12-18T02:00:19;17.83;;;8.27;;
3207;SDS011;1616;52.394;9.756;2022-12-18T02:02:46;21.10;;;11.70;;
3207;SDS011;1616;52.394;9.756;2022-12-18T02:05:15;15.53;;;8.83;;
3207;SDS011;1616;52.394;9.756;2022-12-18T02:11:07;17.13;;;9.33;;
3207;SDS011;1616;52.394;9.756;2022-12-18T02:22:21;14.67;;;8.50;;
3207;SDS011;1616;52.394;9.756;2022-12-18T02:27:47;12.10;;;8.27;;
3207;SDS011;1616;52.394;9.756;2022-12-18T02:30:16;17.57;;;9.07;;
3207;SDS011;1616;52.394;9.756;2022-12-18T02:32:47;16.73;;;8.00;;
3207;SDS011;1616;52.394;9.756;2022-12-18T02:35:23;16.33;;;9.70;;
3207;SDS011;1616;52.394;9.756;2022-12-18T02:37:51;17.93;;;9.57;;
3207;SDS011;1616;52.394;9.756;2022-12-18T02:40:19;15.70;;;9.40;;
3207;SDS011;1616;52.394;9.756;2022-12-18T02:42:47;16.17;;;7.90;;
3207;SDS011;1616;52.394;9.756;2022-12-18T02:45:13;20.53;;;9.23;;
3207;SDS011;1616;52.394;9.756;2022-12-18T02:47:42;17.43;;;8.87;;
3207;SDS011;1616;52.394;9.756;2022-12-18T03:01:19;17.93;;;9.60;;
3207;SDS011;1616;52.394;9.756;2022-12-18T03:03:55;13.70;;;8.40;;
3207;SDS011;1616;52.394;9.756;2022-12-18T03:06:28;18.70;;;8.43;;
3207;SDS011;1616;52.394;9.756;2022-12-18T03:08:58;18.27;;;9.33;;
3207;SDS011;1616;52.394;9.756;2022-12-18T03:11:26;22.33;;;11.40;;
3207;SDS011;1616;52.394;9.756;2022-12-18T03:14:17;12.57;;;7.50;;
3207;SDS011;1616;52.394;9.756;2022-12-18T03:16:47;9.23;;;6.03;;
3207;SDS011;1616;52.394;9.756;2022-12-18T03:19:16;22.80;;;10.13;;
3207;SDS011;1616;52.394;9.756;2022-12-18T03:21:46;12.17;;;6.33;;
3207;SDS011;1616;52.394;9.756;2022-12-18T03:24:14;18.40;;;10.03;;
3207;SDS011;1616;52.394;9.756;2022-12-18T03:26:42;16.93;;;8.37;;
3207;SDS011;1616;52.394;9.756;2022-12-18T03:29:17;26.50;;;10.53;;
3207;SDS011;1616;52.394;9.756;2022-12-18T03:31:48;13.50;;;8.43;;
3207;SDS011;1616;52.394;9.756;2022-12-18T03:34:22;17.53;;;11.33;;
3207;SDS011;1616;52.394;9.756;2022-12-18T03:36:52;20.23;;;11.03;;
3207;SDS011;1616;52.394;9.756;2022-12-18T03:39:18;21.67;;;11.47;;
3207;SDS011;1616;52.394;9.756;2022-12-18T03:42:28;20.03;;;11.00;;
3207;SDS011;1616;52.394;9.756;2022-12-18T03:45:47;18.17;;;7.77;;
3207;SDS011;1616;52.394;9.756;2022-12-18T03:47:58;17.73;;;8.67;;
3207;SDS011;1616;52.394;9.756;2022-12-18T03:50:45;25.23;;;12.30;;
3207;SDS011;1616;52.394;9.756;2022-12-18T03:53:42;21.27;;;10.73;;
3207;SDS011;1616;52.394;9.756;2022-12-18T03:56:16;20.90;;;11.33;;
3207;SDS011;1616;52.394;9.756;2022-12-18T03:58:43;21.13;;;9.77;;
3207;SDS011;1616;52.394;9.756;2022-12-18T04:01:12;25.53;;;10.27;;
3207;SDS011;1616;52.394;9.756;2022-12-18T04:03:39;22.50;;;11.37;;
3207;SDS011;1616;52.394;9.756;2022-12-18T04:06:08;23.63;;;11.53;;
3207;SDS011;1616;52.394;9.756;2022-12-18T04:08:36;23.33;;;10.70;;
3207;SDS011;1616;52.394;9.756;2022-12-18T04:11:03;25.53;;;12.60;;
3207;SDS011;1616;52.394;9.756;2022-12-18T04:13:34;26.43;;;11.10;;
3207;SDS011;1616;52.394;9.756;2022-12-18T04:16:01;24.97;;;10.97;;
3207;SDS011;1616;52.394;9.756;2022-12-18T04:18:27;24.53;;;12.03;;
3207;SDS011;1616;52.394;9.756;2022-12-18T04:20:52;19.57;;;11.50;;
3207;SDS011;1616;52.394;9.756;2022-12-18T04:23:18;25.80;;;11.50;;
3207;SDS011;1616;52.394;9.756;2022-12-18T04:25:44;18.00;;;10.77;;
3207;SDS011;1616;52.394;9.756;2022-12-18T04:28:12;28.73;;;13.50;;
3207;SDS011;1616;52.394;9.756;2022-12-18T04:30:37;23.30;;;11.40;;
3207;SDS011;1616;52.394;9.756;2022-12-18T04:33:03;25.30;;;10.90;;
3207;SDS011;1616;52.394;9.756;2022-12-18T04:35:30;21.37;;;10.97;;
3207;SDS011;1616;52.394;9.756;2022-12-18T04:37:55;25.97;;;10.90;;
3207;SDS011;1616;52.394;9.756;2022-12-18T04:40:21;21.20;;;11.57;;
3207;SDS011;1616;52.394;9.756;2022-12-18T04:42:47;21.50;;;11.03;;
3207;SDS011;1616;52.394;9.756;2022-12-18T04:45:12;19.60;;;9.70;;
3207;SDS011;1616;52.394;9.756;2022-12-18T04:47:38;22.67;;;10.47;;
3207;SDS011;1616;52.394;9.756;2022-12-18T04:50:04;22.20;;;11.50;;
3207;SDS011;1616;52.394;9.756;2022-12-18T04:52:30;17.77;;;10.20;;
3207;SDS011;1616;52.394;9.756;2022-12-18T04:54:56;18.57;;;10.60;;
3207;SDS011;1616;52.394;9.756;2022-12-18T04:57:22;20.90;;;10.37;;
3207;SDS011;1616;52.394;9.756;2022-12-18T04:59:48;20.87;;;10.87;;
3207;SDS011;1616;52.394;9.756;2022-12-18T05:02:13;20.33;;;11.10;;
3207;SDS011;1616;52.394;9.756;2022-12-18T05:04:39;23.23;;;11.27;;
3207;SDS011;1616;52.394;9.756;2022-12-18T05:07:05;22.30;;;10.20;;
3207;SDS011;1616;52.394;9.756;2022-12-18T05:09:31;19.30;;;11.30;;
3207;SDS011;1616;52.394;9.756;2022-12-18T05:11:57;19.73;;;10.03;;
3207;SDS011;1616;52.394;9.756;2022-12-18T05:14:22;26.27;;;11.47;;
3207;SDS011;1616;52.394;9.756;2022-12-18T05:16:48;20.33;;;9.80;;
3207;SDS011;1616;52.394;9.756;2022-12-18T05:19:14;24.57;;;10.27;;
3207;SDS011;1616;52.394;9.756;2022-12-18T05:21:39;24.67;;;10.77;;
3207;SDS011;1616;52.394;9.756;2022-12-18T05:24:05;24.27;;;9.80;;
3207;SDS011;1616;52.394;9.756;2022-12-18T05:26:31;19.93;;;8.70;;
3207;SDS011;1616;52.394;9.756;2022-12-18T05:28:57;16.37;;;9.57;;
3207;SDS011;1616;52.394;9.756;2022-12-18T05:31:22;16.23;;;9.70;;
3207;SDS011;1616;52.394;9.756;2022-12-18T05:33:48;13.17;;;8.93;;
3207;SDS011;1616;52.394;9.756;2022-12-18T05:36:14;15.60;;;8.77;;
3207;SDS011;1616;52.394;9.756;2022-12-18T05:38:40;22.63;;;9.33;;
3207;SDS011;1616;52.394;9.756;2022-12-18T05:41:06;17.23;;;10.40;;
3207;SDS011;1616;52.394;9.756;2022-12-18T05:43:33;18.67;;;9.90;;
3207;SDS011;1616;52.394;9.756;2022-12-18T05:46:07;20.70;;;10.70;;
3207;SDS011;1616;52.394;9.756;2022-12-18T05:48:36;16.90;;;10.17;;
3207;SDS011;1616;52.394;9.756;2022-12-18T05:51:06;22.33;;;11.20;;
3207;SDS011;1616;52.394;9.756;2022-12-18T05:53:33;17.57;;;9.13;;
3207;SDS011;1616;52.394;9.756;2022-12-18T05:56:01;23.77;;;11.30;;
3207;SDS011;1616;52.394;9.756;2022-12-18T05:58:30;21.73;;;9.30;;
3207;SDS011;1616;52.394;9.756;2022-12-18T06:00:56;15.70;;;10.73;;
3207;SDS011;1616;52.394;9.756;2022-12-18T06:03:21;15.57;;;9.33;;
3207;SDS011;1616;52.394;9.756;2022-12-18T06:05:47;20.50;;;9.90;;
3207;SDS011;1616;52.394;9.756;2022-12-18T06:08:13;18.97;;;9.20;;
3207;SDS011;1616;52.394;9.756;2022-12-18T06:10:39;18.77;;;9.37;;
3207;SDS011;1616;52.394;9.756;2022-12-18T06:13:06;13.77;;;9.40;;
3207;SDS011;1616;52.394;9.756;2022-12-18T06:15:32;9.20;;;6.97;;
3207;SDS011;1616;52.394;9.756;2022-12-18T06:17:58;17.00;;;8.57;;
3207;SDS011;1616;52.394;9.756;2022-12-18T06:20:26;10.07;;;7.50;;
3207;SDS011;1616;52.394;9.756;2022-12-18T06:22:51;16.50;;;8.00;;
3207;SDS011;1616;52.394;9.756;2022-12-18T06:25:17;27.00;;;9.47;;
3207;SDS011;1616;52.394;9.756;2022-12-18T06:27:43;16.60;;;9.80;;
3207;SDS011;1616;52.394;9.756;2022-12-18T06:30:09;12.40;;;6.00;;
3207;SDS011;1616;52.394;9.756;2022-12-18T06:32:35;17.33;;;9.30;;
3207;SDS011;1616;52.394;9.756;2022-12-18T06:35:01;18.23;;;8.83;;
3207;SDS011;1616;52.394;9.756;2022-12-18T06:37:27;14.80;;;8.67;;
3207;SDS011;1616;52.394;9.756;2022-12-18T06:39:53;9.57;;;7.17;;
3207;SDS011;1616;52.394;9.756;2022-12-18T06:42:19;16.67;;;8.40;;
3207;SDS011;1616;52.394;9.756;2022-12-18T06:44:44;23.70;;;8.97;;
3207;SDS011;1616;52.394;9.756;2022-12-18T06:47:10;16.77;;;10.03;;
3207;SDS011;1616;52.394;9.756;2022-12-18T06:49:35;12.33;;;7.03;;
3207;SDS011;1616;52.394;9.756;2022-12-18T06:52:01;12.87;;;7.77;;
3207;SDS011;1616;52.394;9.756;2022-12-18T06:54:27;13.20;;;7.73;;
3207;SDS011;1616;52.394;9.756;2022-12-18T06:56:52;11.07;;;8.37;;
3207;SDS011;1616;52.394;9.756;2022-12-18T06:59:18;15.00;;;7.40;;
3207;SDS011;1616;52.394;9.756;2022-12-18T07:01:44;14.47;;;8.73;;
3207;SDS011;1616;52.394;9.756;2022-12-18T07:04:10;12.30;;;7.73;;
3207;SDS011;1616;52.394;9.756;2022-12-18T07:06:35;12.70;;;8.50;;
3207;SDS011;1616;52.394;9.756;2022-12-18T07:09:01;22.40;;;9.13;;
3207;SDS011;1616;52.394;9.756;2022-12-18T07:11:27;10.70;;;7.70;;
3207;SDS011;1616;52.394;9.756;2022-12-18T07:13:53;17.73;;;7.20;;
3207;SDS011;1616;52.394;9.756;2022-12-18T07:16:20;13.13;;;8.50;;
3207;SDS011;1616;52.394;9.756;2022-12-18T07:18:46;12.37;;;8.23;;
3207;SDS011;1616;52.394;9.756;2022-12-18T07:21:13;15.00;;;8.57;;
3207;SDS011;1616;52.394;9.756;2022-12-18T07:23:40;15.97;;;9.00;;
3207;SDS011;1616;52.394;9.756;2022-12-18T07:26:10;13.73;;;6.70;;
3207;SDS011;1616;52.394;9.756;2022-12-18T07:28:37;44.40;;;10.10;;
3207;SDS011;1616;52.394;9.756;2022-12-18T07:31:11;19.67;;;9.40;;
3207;SDS011;1616;52.394;9.756;2022-12-18T07:33:38;16.33;;;9.10;;
3207;SDS011;1616;52.394;9.756;2022-12-18T07:36:05;18.60;;;9.90;;
3207;SDS011;1616;52.394;9.756;2022-12-18T07:38:32;21.23;;;9.17;;
3207;SDS011;1616;52.394;9.756;2022-12-18T07:41:02;16.00;;;8.10;;
3207;SDS011;1616;52.394;9.756;2022-12-18T07:43:30;11.87;;;8.30;;
3207;SDS011;1616;52.394;9.756;2022-12-18T07:45:56;17.57;;;9.50;;
3207;SDS011;1616;52.394;9.756;2022-12-18T07:48:22;10.60;;;9.10;;
3207;SDS011;1616;52.394;9.756;2022-12-18T07:50:48;13.60;;;7.20;;
3207;SDS011;1616;52.394;9.756;2022-12-18T07:53:13;15.30;;;8.30;;
3207;SDS011;1616;52.394;9.756;2022-12-18T07:55:40;13.10;;;7.27;;
3207;SDS011;1616;52.394;9.756;2022-12-18T07:58:06;13.37;;;7.10;;
3207;SDS011;1616;52.394;9.756;2022-12-18T08:00:32;19.73;;;8.77;;
3207;SDS011;1616;52.394;9.756;2022-12-18T08:02:58;18.70;;;10.13;;
3207;SDS011;1616;52.394;9.756;2022-12-18T08:05:24;17.00;;;10.13;;
3207;SDS011;1616;52.394;9.756;2022-12-18T08:07:50;17.37;;;10.13;;
3207;SDS011;1616;52.394;9.756;2022-12-18T08:10:16;14.53;;;8.90;;
3207;SDS011;1616;52.394;9.756;2022-12-18T08:12:42;12.17;;;7.73;;
3207;SDS011;1616;52.394;9.756;2022-12-18T08:15:08;12.30;;;8.00;;
3207;SDS011;1616;52.394;9.756;2022-12-18T08:17:34;7.53;;;6.83;;
3207;SDS011;1616;52.394;9.756;2022-12-18T08:20:00;14.13;;;8.10;;
3207;SDS011;1616;52.394;9.756;2022-12-18T08:22:25;9.53;;;6.43;;
3207;SDS011;1616;52.394;9.756;2022-12-18T08:24:51;7.80;;;7.00;;
3207;SDS011;1616;52.394;9.756;2022-12-18T08:27:17;7.13;;;5.73;;
3207;SDS011;1616;52.394;9.756;2022-12-18T08:29:42;8.73;;;6.10;;
3207;SDS011;1616;52.394;9.756;2022-12-18T08:32:08;10.60;;;6.30;;
3207;SDS011;1616;52.394;9.756;2022-12-18T08:34:34;7.70;;;6.30;;
3207;SDS011;1616;52.394;9.756;2022-12-18T08:37:00;8.20;;;6.70;;
3207;SDS011;1616;52.394;9.756;2022-12-18T08:39:26;10.40;;;6.47;;
3207;SDS011;1616;52.394;9.756;2022-12-18T08:41:51;7.00;;;6.40;;
3207;SDS011;1616;52.394;9.756;2022-12-18T08:44:36;6.43;;;5.93;;
3207;SDS011;1616;52.394;9.756;2022-12-18T08:47:07;7.60;;;6.60;;
3207;SDS011;1616;52.394;9.756;2022-12-18T08:49:34;7.77;;;5.73;;
3207;SDS011;1616;52.394;9.756;2022-12-18T08:52:00;6.77;;;6.37;;
3207;SDS011;1616;52.394;9.756;2022-12-18T08:54:27;7.53;;;6.87;;
3207;SDS011;1616;52.394;9.756;2022-12-18T08:56:54;8.90;;;6.80;;
3207;SDS011;1616;52.394;9.756;2022-12-18T08:59:19;7.23;;;6.53;;
3207;SDS011;1616;52.394;9.756;2022-12-18T09:01:46;8.37;;;5.47;;
3207;SDS011;1616;52.394;9.756;2022-12-18T09:04:12;7.73;;;6.90;;
3207;SDS011;1616;52.394;9.756;2022-12-18T09:06:39;8.13;;;7.30;;
3207;SDS011;1616;52.394;9.756;2022-12-18T09:09:05;7.77;;;6.50;;
3207;SDS011;1616;52.394;9.756;2022-12-18T09:11:31;7.23;;;6.70;;
3207;SDS011;1616;52.394;9.756;2022-12-18T09:13:58;10.13;;;7.97;;
3207;SDS011;1616;52.394;9.756;2022-12-18T09:16:26;9.77;;;8.20;;
3207;SDS011;1616;52.394;9.756;2022-12-18T09:18:56;8.13;;;7.40;;
3207;SDS011;1616;52.394;9.756;2022-12-18T09:21:25;8.70;;;7.23;;
3207;SDS011;1616;52.394;9.756;2022-12-18T09:23:53;7.87;;;7.17;;
3207;SDS011;1616;52.394;9.756;2022-12-18T09:26:21;8.70;;;7.27;;
3207;SDS011;1616;52.394;9.756;2022-12-18T09:28:48;7.10;;;6.60;;
3207;SDS011;1616;52.394;9.756;2022-12-18T09:31:14;8.20;;;7.40;;
3207;SDS011;1616;52.394;9.756;2022-12-18T09:33:41;7.10;;;6.40;;
3207;SDS011;1616;52.394;9.756;2022-12-18T09:36:08;8.37;;;7.33;;
3207;SDS011;1616;52.394;9.756;2022-12-18T09:38:35;7.47;;;6.40;;
3207;SDS011;1616;52.394;9.756;2022-12-18T09:41:47;7.03;;;6.43;;
3207;SDS011;1616;52.394;9.756;2022-12-18T09:44:19;7.30;;;6.40;;
3207;SDS011;1616;52.394;9.756;2022-12-18T09:47:04;8.00;;;7.40;;
3207;SDS011;1616;52.394;9.756;2022-12-18T09:49:42;7.47;;;6.83;;
3207;SDS011;1616;52.394;9.756;2022-12-18T09:52:21;7.93;;;7.23;;
3207;SDS011;1616;52.394;9.756;2022-12-18T09:54:56;6.80;;;6.20;;
3207;SDS011;1616;52.394;9.756;2022-12-18T09:57:36;6.50;;;6.00;;
3207;SDS011;1616;52.394;9.756;2022-12-18T10:00:20;7.70;;;7.00;;
3207;SDS011;1616;52.394;9.756;2022-12-18T10:02:47;7.63;;;6.60;;
3207;SDS011;1616;52.394;9.756;2022-12-18T10:05:29;7.67;;;6.87;;
3207;SDS011;1616;52.394;9.756;2022-12-18T10:08:02;7.17;;;6.57;;
3207;SDS011;1616;52.394;9.756;2022-12-18T10:10:59;7.33;;;6.73;;
3207;SDS011;1616;52.394;9.756;2022-12-18T10:13:51;6.17;;;5.80;;
3207;SDS011;1616;52.394;9.756;2022-12-18T10:26:40;7.83;;;7.10;;
3207;SDS011;1616;52.394;9.756;2022-12-18T10:29:13;7.33;;;6.73;;
3207;SDS011;1616;52.394;9.756;2022-12-18T10:31:40;8.43;;;7.30;;
3207;SDS011;1616;52.394;9.756;2022-12-18T10:34:10;7.27;;;6.67;;
3207;SDS011;1616;52.394;9.756;2022-12-18T10:36:39;6.70;;;6.10;;
3207;SDS011;1616;52.394;9.756;2022-12-18T10:39:18;7.03;;;6.43;;
3207;SDS011;1616;52.394;9.756;2022-12-18T10:41:49;8.10;;;6.97;;
3207;SDS011;1616;52.394;9.756;2022-12-18T10:46:46;6.83;;;6.23;;
3207;SDS011;1616;52.394;9.756;2022-12-18T10:49:36;6.13;;;5.80;;
3207;SDS011;1616;52.394;9.756;2022-12-18T10:52:07;6.50;;;6.10;;
3207;SDS011;1616;52.394;9.756;2022-12-18T10:54:45;8.47;;;7.67;;
3207;SDS011;1616;52.394;9.756;2022-12-18T10:59:55;7.20;;;6.07;;
3207;SDS011;1616;52.394;9.756;2022-12-18T11:02:28;6.50;;;6.13;;
3207;SDS011;1616;52.394;9.756;2022-12-18T11:05:00;6.53;;;5.67;;
3207;SDS011;1616;52.394;9.756;2022-12-18T11:07:49;7.37;;;6.63;;
3207;SDS011;1616;52.394;9.756;2022-12-18T11:10:16;7.13;;;6.43;;
3207;SDS011;1616;52.394;9.756;2022-12-18T11:12:43;7.07;;;6.37;;
3207;SDS011;1616;52.394;9.756;2022-12-18T11:15:15;6.20;;;5.80;;
3207;SDS011;1616;52.394;9.756;2022-12-18T11:17:44;6.67;;;6.07;;
3207;SDS011;1616;52.394;9.756;2022-12-18T11:22:56;7.00;;;6.40;;
3207;SDS011;1616;52.394;9.756;2022-12-18T11:25:26;5.70;;;4.60;;
3207;SDS011;1616;52.394;9.756;2022-12-18T11:27:58;5.23;;;4.83;;
3207;SDS011;1616;52.394;9.756;2022-12-18T11:30:30;6.17;;;5.60;;
3207;SDS011;1616;52.394;9.756;2022-12-18T11:33:05;4.70;;;4.30;;
3207;SDS011;1616;52.394;9.756;2022-12-18T11:38:12;4.67;;;4.37;;
3207;SDS011;1616;52.394;9.756;2022-12-18T11:43:45;4.10;;;3.80;;
3207;SDS011;1616;52.394;9.756;2022-12-18T11:46:19;4.70;;;4.20;;
3207;SDS011;1616;52.394;9.756;2022-12-18T11:49:26;4.70;;;4.40;;
3207;SDS011;1616;52.394;9.756;2022-12-18T11:54:55;4.97;;;4.67;;
3207;SDS011;1616;52.394;9.756;2022-12-18T11:57:34;4.67;;;4.43;;
3207;SDS011;1616;52.394;9.756;2022-12-18T12:00:33;4.97;;;4.67;;
3207;SDS011;1616;52.394;9.756;2022-12-18T12:04:09;6.23;;;5.73;;
3207;SDS011;1616;52.394;9.756;2022-12-18T12:06:22;5.47;;;5.07;;
3207;SDS011;1616;52.394;9.756;2022-12-18T12:14:43;9.33;;;7.30;;
3207;SDS011;1616;52.394;9.756;2022-12-18T12:17:21;9.13;;;7.10;;
3207;SDS011;1616;52.394;9.756;2022-12-18T12:20:16;7.07;;;6.53;;
3207;SDS011;1616;52.394;9.756;2022-12-18T12:23:09;6.83;;;6.23;;
3207;SDS011;1616;52.394;9.756;2022-12-18T12:39:37;5.70;;;4.17;;
3207;SDS011;1616;52.394;9.756;2022-12-18T12:42:05;4.63;;;4.23;;
3207;SDS011;1616;52.394;9.756;2022-12-18T12:44:58;5.27;;;4.77;;
3207;SDS011;1616;52.394;9.756;2022-12-18T12:47:28;5.10;;;4.50;;
3207;SDS011;1616;52.394;9.756;2022-12-18T12:49:59;20.50;;;11.57;;
3207;SDS011;1616;52.394;9.756;2022-12-18T12:52:34;7.60;;;6.90;;
3207;SDS011;1616;52.394;9.756;2022-12-18T12:55:05;7.50;;;6.80;;
3207;SDS011;1616;52.394;9.756;2022-12-18T12:57:45;10.77;;;6.93;;
3207;SDS011;1616;52.394;9.756;2022-12-18T13:00:18;9.17;;;7.00;;
3207;SDS011;1616;52.394;9.756;2022-12-18T13:05:54;11.10;;;6.30;;
3207;SDS011;1616;52.394;9.756;2022-12-18T13:08:25;13.23;;;7.83;;
3207;SDS011;1616;52.394;9.756;2022-12-18T13:10:56;12.10;;;8.10;;
3207;SDS011;1616;52.394;9.756;2022-12-18T13:13:51;20.27;;;11.77;;
3207;SDS011;1616;52.394;9.756;2022-12-18T13:16:24;26.47;;;12.00;;
3207;SDS011;1616;52.394;9.756;2022-12-18T13:18:53;17.23;;;11.37;;
3207;SDS011;1616;52.394;9.756;2022-12-18T13:21:30;15.67;;;10.37;;
3207;SDS011;1616;52.394;9.756;2022-12-18T13:24:15;18.80;;;9.60;;
3207;SDS011;1616;52.394;9.756;2022-12-18T13:26:48;14.50;;;9.37;;
3207;SDS011;1616;52.394;9.756;2022-12-18T13:29:40;18.60;;;9.90;;
3207;SDS011;1616;52.394;9.756;2022-12-18T13:32:23;23.33;;;13.57;;
3207;SDS011;1616;52.394;9.756;2022-12-18T13:37:54;21.50;;;12.20;;
3207;SDS011;1616;52.394;9.756;2022-12-18T13:43:50;27.90;;;13.57;;
3207;SDS011;1616;52.394;9.756;2022-12-18T13:48:56;20.50;;;11.70;;
3207;SDS011;1616;52.394;9.756;2022-12-18T13:51:49;17.77;;;10.60;;
3207;SDS011;1616;52.394;9.756;2022-12-18T13:56:58;19.60;;;11.80;;
3207;SDS011;1616;52.394;9.756;2022-12-18T13:59:39;20.67;;;12.13;;
3207;SDS011;1616;52.394;9.756;2022-12-18T14:02:22;17.40;;;9.90;;
3207;SDS011;1616;52.394;9.756;2022-12-18T14:04:50;19.47;;;12.10;;
3207;SDS011;1616;52.394;9.756;2022-12-18T14:07:18;21.30;;;11.30;;
3207;SDS011;1616;52.394;9.756;2022-12-18T14:09:45;21.97;;;11.73;;
3207;SDS011;1616;52.394;9.756;2022-12-18T14:12:21;19.83;;;11.27;;
3207;SDS011;1616;52.394;9.756;2022-12-18T14:17:53;20.07;;;11.77;;
3207;SDS011;1616;52.394;9.756;2022-12-18T14:20:24;21.20;;;11.80;;
3207;SDS011;1616;52.394;9.756;2022-12-18T14:22:52;20.47;;;10.50;;
3207;SDS011;1616;52.394;9.756;2022-12-18T14:25:25;22.03;;;12.97;;
3207;SDS011;1616;52.394;9.756;2022-12-18T14:30:39;26.90;;;13.77;;
3207;SDS011;1616;52.394;9.756;2022-12-18T14:33:11;27.67;;;13.43;;
3207;SDS011;1616;52.394;9.756;2022-12-18T14:35:52;17.67;;;12.27;;
3207;SDS011;1616;52.394;9.756;2022-12-18T14:38:34;28.90;;;13.70;;
3207;SDS011;1616;52.394;9.756;2022-12-18T14:41:05;20.13;;;11.73;;
3207;SDS011;1616;52.394;9.756;2022-12-18T14:43:37;27.07;;;14.87;;
3207;SDS011;1616;52.394;9.756;2022-12-18T14:46:05;22.40;;;12.67;;
3207;SDS011;1616;52.394;9.756;2022-12-18T14:48:51;30.37;;;14.40;;
3207;SDS011;1616;52.394;9.756;2022-12-18T14:53:46;41.27;;;18.23;;
3207;SDS011;1616;52.394;9.756;2022-12-18T14:56:17;42.27;;;18.83;;
3207;SDS011;1616;52.394;9.756;2022-12-18T14:58:47;37.37;;;18.90;;
3207;SDS011;1616;52.394;9.756;2022-12-18T15:01:19;51.97;;;24.07;;
3207;SDS011;1616;52.394;9.756;2022-12-18T15:03:47;33.83;;;16.67;;
3207;SDS011;1616;52.394;9.756;2022-12-18T15:09:00;37.13;;;17.70;;
3207;SDS011;1616;52.394;9.756;2022-12-18T15:11:32;42.53;;;20.03;;
3207;SDS011;1616;52.394;9.756;2022-12-18T15:16:54;32.00;;;16.90;;
3207;SDS011;1616;52.394;9.756;2022-12-18T15:19:21;26.83;;;16.70;;
3207;SDS011;1616;52.394;9.756;2022-12-18T15:21:56;31.17;;;14.10;;
3207;SDS011;1616;52.394;9.756;2022-12-18T15:24:24;29.13;;;15.20;;
3207;SDS011;1616;52.394;9.756;2022-12-18T15:26:54;32.13;;;15.10;;
3207;SDS011;1616;52.394;9.756;2022-12-18T15:29:21;41.67;;;21.73;;
3207;SDS011;1616;52.394;9.756;2022-12-18T15:32:00;55.20;;;27.60;;
3207;SDS011;1616;52.394;9.756;2022-12-18T15:34:28;36.40;;;17.77;;
3207;SDS011;1616;52.394;9.756;2022-12-18T15:36:54;31.67;;;15.07;;
3207;SDS011;1616;52.394;9.756;2022-12-18T15:39:20;27.70;;;14.63;;
3207;SDS011;1616;52.394;9.756;2022-12-18T15:41:46;30.30;;;15.07;;
3207;SDS011;1616;52.394;9.756;2022-12-18T15:44:30;25.03;;;13.40;;
3207;SDS011;1616;52.394;9.756;2022-12-18T15:46:57;24.57;;;13.93;;
3207;SDS011;1616;52.394;9.756;2022-12-18T15:49:23;34.83;;;11.43;;
3207;SDS011;1616;52.394;9.756;2022-12-18T15:51:51;30.00;;;15.20;;
3207;SDS011;1616;52.394;9.756;2022-12-18T15:54:19;25.70;;;14.30;;
3207;SDS011;1616;52.394;9.756;2022-12-18T15:57:05;26.20;;;14.90;;
3207;SDS011;1616;52.394;9.756;2022-12-18T15:59:48;29.77;;;14.20;;
3207;SDS011;1616;52.394;9.756;2022-12-18T16:02:19;22.13;;;13.87;;
3207;SDS011;1616;52.394;9.756;2022-12-18T16:04:48;29.63;;;16.10;;
3207;SDS011;1616;52.394;9.756;2022-12-18T16:07:14;35.40;;;14.37;;
3207;SDS011;1616;52.394;9.756;2022-12-18T16:09:40;47.37;;;14.27;;
3207;SDS011;1616;52.394;9.756;2022-12-18T16:12:09;25.33;;;13.50;;
3207;SDS011;1616;52.394;9.756;2022-12-18T16:14:41;31.90;;;16.63;;
3207;SDS011;1616;52.394;9.756;2022-12-18T16:17:08;31.50;;;14.70;;
3207;SDS011;1616;52.394;9.756;2022-12-18T16:19:35;31.03;;;14.97;;
3207;SDS011;1616;52.394;9.756;2022-12-18T16:22:01;31.37;;;15.17;;
3207;SDS011;1616;52.394;9.756;2022-12-18T16:24:28;29.07;;;15.40;;
3207;SDS011;1616;52.394;9.756;2022-12-18T16:26:56;30.90;;;17.90;;
3207;SDS011;1616;52.394;9.756;2022-12-18T16:29:23;60.23;;;30.93;;
3207;SDS011;1616;52.394;9.756;2022-12-18T16:31:52;32.93;;;15.77;;
3207;SDS011;1616;52.394;9.756;2022-12-18T16:36:49;32.23;;;16.40;;
3207;SDS011;1616;52.394;9.756;2022-12-18T16:39:15;41.43;;;19.17;;
3207;SDS011;1616;52.394;9.756;2022-12-18T16:41:41;32.53;;;16.70;;
3207;SDS011;1616;52.394;9.756;2022-12-18T16:44:07;34.50;;;18.27;;
3207;SDS011;1616;52.394;9.756;2022-12-18T16:46:33;30.43;;;17.27;;
3207;SDS011;1616;52.394;9.756;2022-12-18T16:48:59;36.83;;;18.60;;
3207;SDS011;1616;52.394;9.756;2022-12-18T16:51:26;50.40;;;24.20;;
3207;SDS011;1616;52.394;9.756;2022-12-18T16:53:55;38.00;;;17.83;;
3207;SDS011;1616;52.394;9.756;2022-12-18T16:56:21;44.80;;;19.97;;
3207;SDS011;1616;52.394;9.756;2022-12-18T16:58:54;28.70;;;13.70;;
3207;SDS011;1616;52.394;9.756;2022-12-18T17:01:22;33.13;;;18.00;;
3207;SDS011;1616;52.394;9.756;2022-12-18T17:03:56;25.67;;;12.40;;